Quailtown, Indiana
Current Conditions -  °F | °C
As of 9:50 PM on Saturday 20 Dec 2014 (Local Time) from KBAK Reporting Station
Overcast Overcast  
Wind Chill: 24°   Ceiling: 2200
Heat Index: 30°   Visibility: 7mi
Dew Point: 28°   Wind: 6mph
Humidity: 93%   Direction: 140°SE
Pressure: 30.3"   Gusts: NA
Location:  39.1743°N, 85.6083°W
Report Text: KBAK 210250Z 14005KT 7SM OVC022 M01/M02 A3030
Loading
Personal Weather Stations






























Interactive Weather Map New forecast layout! Learn more

10-Day Weather Forecast

Advertisements
Track Severe Weather on mobile